createdAt,value
2017-12-30T00:02:14.145Z,5.30
2017-12-30T00:04:42.499Z,5.30
2017-12-30T00:07:10.874Z,5.30
2017-12-30T00:09:39.225Z,5.30
2017-12-30T00:12:07.602Z,5.30
2017-12-30T00:14:35.954Z,5.30
2017-12-30T00:17:05.100Z,5.30
2017-12-30T00:19:33.458Z,5.30
2017-12-30T00:22:01.846Z,5.20
2017-12-30T00:24:31.085Z,5.20
2017-12-30T00:26:59.449Z,5.10
2017-12-30T00:29:27.809Z,5.20
2017-12-30T00:31:56.214Z,5.20
2017-12-30T00:34:24.617Z,5.10
2017-12-30T00:36:53.755Z,5.10
2017-12-30T00:39:22.197Z,5.10
2017-12-30T00:41:50.991Z,5.10
2017-12-30T00:44:20.143Z,5.00
2017-12-30T00:46:48.750Z,5.00
2017-12-30T00:49:17.134Z,5.00
2017-12-30T00:51:45.470Z,5.00
2017-12-30T00:54:13.839Z,4.90
2017-12-30T00:56:42.319Z,4.90
2017-12-30T00:59:10.670Z,4.90
2017-12-30T01:01:39.182Z,4.90
2017-12-30T01:04:07.554Z,4.90
2017-12-30T01:06:35.957Z,4.90
2017-12-30T01:09:04.625Z,5.00
2017-12-30T01:11:33.059Z,4.90
2017-12-30T01:14:02.246Z,5.00
2017-12-30T01:16:30.622Z,5.00
2017-12-30T01:18:58.797Z,5.00
2017-12-30T01:21:27.939Z,4.90
2017-12-30T01:23:58.796Z,4.90
2017-12-30T01:26:27.159Z,4.90
2017-12-30T01:28:55.626Z,4.90
2017-12-30T01:31:24.257Z,4.90
2017-12-30T01:33:52.623Z,4.90
2017-12-30T01:36:21.708Z,4.90
2017-12-30T01:38:50.101Z,4.90
2017-12-30T01:41:18.514Z,4.90
2017-12-30T01:43:47.631Z,4.90
2017-12-30T01:46:16.004Z,4.90
2017-12-30T01:48:55.622Z,4.90
2017-12-30T01:51:24.749Z,4.80
2017-12-30T01:53:53.109Z,4.80
2017-12-30T01:56:22.250Z,4.80
2017-12-30T01:58:51.120Z,4.80
2017-12-30T02:01:19.488Z,4.80
2017-12-30T02:03:48.012Z,4.80
2017-12-30T02:06:16.404Z,4.80
2017-12-30T02:08:44.771Z,4.80
2017-12-30T02:11:13.202Z,4.70
2017-12-30T02:13:41.580Z,4.70
2017-12-30T02:16:09.965Z,4.60
2017-12-30T02:18:38.339Z,4.60
2017-12-30T02:21:06.678Z,4.60
2017-12-30T02:23:35.823Z,4.50
2017-12-30T02:26:04.191Z,4.50
2017-12-30T02:28:32.577Z,4.60
2017-12-30T02:31:01.117Z,4.60
2017-12-30T02:33:30.236Z,4.50
2017-12-30T02:35:58.684Z,4.50
2017-12-30T02:38:27.834Z,4.50
2017-12-30T02:40:56.343Z,4.50
2017-12-30T02:43:24.712Z,4.50
2017-12-30T02:45:53.096Z,4.60
2017-12-30T02:48:21.440Z,4.50
2017-12-30T02:50:49.820Z,4.60
2017-12-30T02:53:18.192Z,4.60
2017-12-30T02:55:46.569Z,4.60
2017-12-30T02:58:14.923Z,4.60
2017-12-30T03:00:43.334Z,4.60
2017-12-30T03:03:11.700Z,4.70
2017-12-30T03:05:40.233Z,4.70
2017-12-30T03:08:08.609Z,4.70
2017-12-30T03:10:36.969Z,4.70
2017-12-30T03:13:05.344Z,4.70
2017-12-30T03:15:34.044Z,4.60
2017-12-30T03:18:02.396Z,4.60
2017-12-30T03:20:30.921Z,4.50
2017-12-30T03:23:00.042Z,4.50
2017-12-30T03:25:28.394Z,4.50
2017-12-30T03:27:57.545Z,4.50
2017-12-30T03:30:25.898Z,4.50
2017-12-30T03:32:54.258Z,4.50
2017-12-30T03:35:23.396Z,4.50
2017-12-30T03:37:51.928Z,4.50
2017-12-30T03:40:21.038Z,4.60
2017-12-30T03:42:50.186Z,4.50
2017-12-30T03:45:18.563Z,4.50
2017-12-30T03:47:46.922Z,4.60
2017-12-30T03:50:15.470Z,4.60
2017-12-30T03:52:43.820Z,4.60
2017-12-30T03:55:12.976Z,4.70
2017-12-30T03:57:41.348Z,4.70
2017-12-30T04:00:09.880Z,4.70
2017-12-30T04:02:38.260Z,4.70
2017-12-30T04:05:06.839Z,4.70
2017-12-30T04:07:35.985Z,4.80
2017-12-30T04:10:04.494Z,4.70
2017-12-30T04:12:32.961Z,4.80
2017-12-30T04:15:01.484Z,4.80
2017-12-30T04:17:30.637Z,4.70
2017-12-30T04:19:59.331Z,4.80
2017-12-30T04:22:27.677Z,4.70
2017-12-30T04:24:56.058Z,4.70
2017-12-30T04:27:24.490Z,4.80
2017-12-30T04:29:52.850Z,4.80
2017-12-30T04:32:21.240Z,4.90
2017-12-30T04:34:49.605Z,4.80
2017-12-30T04:37:17.983Z,4.90
2017-12-30T04:39:46.355Z,4.90
2017-12-30T04:42:14.732Z,4.90
2017-12-30T04:44:43.183Z,5.00
2017-12-30T04:47:11.536Z,5.00
2017-12-30T04:49:39.886Z,5.00
2017-12-30T04:52:08.267Z,5.00
2017-12-30T04:54:36.626Z,5.00
2017-12-30T04:57:06.583Z,5.10
2017-12-30T04:59:34.752Z,5.00
2017-12-30T05:02:03.883Z,5.10
2017-12-30T05:04:32.235Z,5.10
2017-12-30T05:07:01.314Z,5.10
2017-12-30T05:09:31.168Z,5.20
2017-12-30T05:11:59.510Z,5.20
2017-12-30T05:14:27.871Z,5.20
2017-12-30T05:16:57.194Z,5.30
2017-12-30T05:19:25.569Z,5.30
2017-12-30T05:21:54.691Z,5.30
2017-12-30T05:24:23.048Z,5.30
2017-12-30T05:26:51.447Z,5.30
2017-12-30T05:29:19.829Z,5.30
2017-12-30T05:31:48.181Z,5.30
2017-12-30T05:34:16.693Z,5.30
2017-12-30T05:36:45.193Z,5.30
2017-12-30T05:39:13.649Z,5.20
2017-12-30T05:41:42.173Z,5.20
2017-12-30T05:44:10.527Z,5.20
2017-12-30T05:46:39.000Z,5.20
2017-12-30T05:49:07.358Z,5.20
2017-12-30T05:51:35.726Z,5.20
2017-12-30T05:54:04.109Z,5.10
2017-12-30T05:56:32.634Z,5.10
2017-12-30T05:59:02.489Z,5.10
2017-12-30T06:01:30.904Z,5.10
2017-12-30T06:04:01.746Z,5.10
2017-12-30T06:06:30.104Z,5.20
2017-12-30T06:08:58.525Z,5.20
2017-12-30T06:11:26.878Z,5.20
2017-12-30T06:13:55.408Z,5.20
2017-12-30T06:16:24.526Z,5.10
2017-12-30T06:18:52.906Z,5.10
2017-12-30T06:21:21.386Z,5.10
2017-12-30T06:23:49.744Z,5.10
2017-12-30T06:26:18.842Z,5.10
2017-12-30T06:28:47.209Z,5.10
2017-12-30T06:31:15.567Z,5.10
2017-12-30T06:33:43.943Z,5.00
2017-12-30T06:36:13.169Z,5.00
2017-12-30T06:38:41.535Z,5.00
2017-12-30T06:41:10.658Z,5.00
2017-12-30T06:43:39.218Z,5.00
2017-12-30T06:46:08.487Z,5.00
2017-12-30T06:48:38.302Z,5.00
2017-12-30T06:51:06.677Z,5.00
2017-12-30T06:53:35.211Z,5.10
2017-12-30T06:56:03.795Z,5.00
2017-12-30T06:58:32.143Z,5.00
2017-12-30T07:01:01.317Z,4.90
2017-12-30T07:03:29.994Z,4.90
2017-12-30T07:05:58.363Z,5.00
2017-12-30T07:08:26.720Z,5.00
2017-12-30T07:10:55.084Z,5.00
2017-12-30T07:13:23.489Z,5.00
2017-12-30T07:15:51.865Z,5.00
2017-12-30T07:18:20.213Z,5.00
2017-12-30T07:20:48.606Z,5.00
2017-12-30T07:23:17.240Z,5.00
2017-12-30T07:25:45.585Z,5.00
2017-12-30T07:28:16.145Z,5.00
2017-12-30T07:30:44.511Z,5.00
2017-12-30T07:33:13.011Z,5.00
2017-12-30T07:35:42.156Z,5.00
2017-12-30T07:38:10.585Z,5.00
2017-12-30T07:40:39.730Z,5.00
2017-12-30T07:43:08.168Z,5.00
2017-12-30T07:45:37.409Z,5.00
2017-12-30T07:48:05.767Z,5.00
2017-12-30T07:50:34.124Z,5.00
2017-12-30T07:53:03.265Z,5.10
2017-12-30T07:55:31.796Z,5.00
2017-12-30T07:58:00.909Z,5.10
2017-12-30T08:00:29.306Z,5.00
2017-12-30T08:02:57.780Z,5.10
2017-12-30T08:05:26.199Z,5.10
2017-12-30T08:07:55.363Z,5.10
2017-12-30T08:10:23.749Z,5.10
2017-12-30T08:12:52.119Z,5.20
2017-12-30T08:15:21.086Z,5.10
2017-12-30T08:17:49.451Z,5.10
2017-12-30T08:20:18.883Z,5.10
2017-12-30T08:22:47.233Z,5.10
2017-12-30T08:25:16.407Z,5.20
2017-12-30T08:27:44.760Z,5.20
2017-12-30T08:30:13.403Z,5.20
2017-12-30T08:32:41.782Z,5.20
2017-12-30T08:35:10.149Z,5.20
2017-12-30T08:37:39.351Z,5.20
2017-12-30T08:40:08.598Z,5.20
2017-12-30T08:42:36.968Z,5.20
2017-12-30T08:45:05.346Z,5.10
2017-12-30T08:47:33.713Z,5.20
2017-12-30T08:50:02.110Z,5.20
2017-12-30T08:52:30.484Z,5.20
2017-12-30T08:54:59.014Z,5.30
2017-12-30T08:57:28.150Z,5.40
2017-12-30T08:59:57.323Z,5.30
2017-12-30T09:02:25.676Z,5.30
2017-12-30T09:04:54.840Z,5.40
2017-12-30T09:07:23.302Z,5.40
2017-12-30T09:09:51.722Z,5.40
2017-12-30T09:12:20.866Z,5.40
2017-12-30T09:14:49.271Z,5.40
2017-12-30T09:17:17.638Z,5.40
2017-12-30T09:19:46.026Z,5.50
2017-12-30T09:22:14.382Z,5.50
2017-12-30T09:24:42.750Z,5.60
2017-12-30T09:27:11.099Z,5.60
2017-12-30T09:29:40.239Z,5.70
2017-12-30T09:32:08.818Z,5.70
2017-12-30T09:34:37.198Z,5.70
2017-12-30T09:37:05.597Z,5.80
2017-12-30T09:39:33.959Z,5.90
2017-12-30T09:42:02.329Z,5.90
2017-12-30T09:44:30.713Z,6.00
2017-12-30T09:46:59.086Z,6.00
2017-12-30T09:49:27.445Z,5.90
2017-12-30T09:51:55.820Z,6.00
2017-12-30T09:54:24.312Z,6.10
2017-12-30T09:56:52.665Z,6.10
2017-12-30T09:59:21.012Z,6.10
2017-12-30T10:01:49.568Z,6.10
2017-12-30T10:04:18.254Z,6.10
2017-12-30T10:06:46.609Z,6.10
2017-12-30T10:09:14.967Z,6.20
2017-12-30T10:11:43.309Z,6.20
2017-12-30T10:14:11.709Z,6.20
2017-12-30T10:16:40.876Z,6.30
2017-12-30T10:19:09.473Z,6.30
2017-12-30T10:21:38.017Z,6.30
2017-12-30T10:24:06.386Z,6.40
2017-12-30T10:26:34.767Z,6.50
2017-12-30T10:29:03.154Z,6.50
2017-12-30T10:31:31.838Z,6.50
2017-12-30T10:34:00.210Z,6.60
2017-12-30T10:36:28.602Z,6.60
2017-12-30T10:38:56.975Z,6.70
2017-12-30T10:41:25.357Z,6.80
2017-12-30T10:43:53.722Z,6.90
2017-12-30T10:46:22.082Z,6.90
2017-12-30T10:48:50.465Z,7.00
2017-12-30T10:51:19.747Z,7.00
2017-12-30T10:53:48.134Z,7.10
2017-12-30T10:56:16.878Z,7.20
2017-12-30T10:58:45.250Z,7.20
2017-12-30T11:01:14.385Z,7.30
2017-12-30T11:03:42.733Z,7.30
2017-12-30T11:06:11.089Z,7.40
2017-12-30T11:08:39.740Z,7.50
2017-12-30T11:11:08.129Z,7.60
2017-12-30T11:13:36.489Z,7.60
2017-12-30T11:16:05.468Z,7.80
2017-12-30T11:18:33.842Z,7.90
2017-12-30T11:21:02.962Z,8.40
2017-12-30T11:23:31.314Z,8.40
2017-12-30T11:26:00.430Z,9.10
2017-12-30T11:28:28.778Z,9.10
2017-12-30T11:30:57.983Z,9.50
2017-12-30T11:33:26.344Z,9.50
2017-12-30T11:35:55.473Z,9.60
2017-12-30T11:38:24.020Z,9.60
2017-12-30T11:40:52.680Z,9.70
2017-12-30T11:43:21.057Z,9.80
2017-12-30T11:45:49.400Z,9.90
2017-12-30T11:48:17.811Z,10.00
2017-12-30T11:50:46.194Z,10.10
2017-12-30T11:53:14.549Z,10.20
2017-12-30T11:55:43.126Z,10.30
2017-12-30T11:58:11.470Z,10.40
2017-12-30T12:00:40.834Z,10.50
2017-12-30T12:03:09.193Z,10.40
2017-12-30T12:05:37.573Z,10.50
2017-12-30T12:08:05.929Z,10.50
2017-12-30T12:10:34.295Z,10.50
2017-12-30T12:13:02.786Z,10.60
2017-12-30T12:15:31.319Z,10.60
2017-12-30T12:17:59.959Z,10.60
2017-12-30T12:20:28.349Z,10.70
2017-12-30T12:22:56.874Z,10.80
2017-12-30T12:25:26.013Z,10.80
2017-12-30T12:27:54.564Z,10.80
2017-12-30T12:30:23.826Z,10.90
2017-12-30T12:32:52.204Z,10.90
2017-12-30T12:35:20.587Z,11.00
2017-12-30T12:37:49.336Z,11.00
2017-12-30T12:40:17.760Z,11.10
2017-12-30T12:42:46.904Z,11.10
2017-12-30T12:45:15.308Z,11.10
2017-12-30T12:47:43.676Z,11.10
2017-12-30T12:50:12.121Z,11.10
2017-12-30T12:52:40.471Z,11.20
2017-12-30T12:55:08.856Z,11.20
2017-12-30T12:57:38.194Z,11.30
2017-12-30T13:00:06.584Z,11.30
2017-12-30T13:02:34.794Z,11.40
2017-12-30T13:05:04.040Z,11.40
2017-12-30T13:07:32.415Z,11.40
2017-12-30T13:10:00.811Z,11.50
2017-12-30T13:12:29.191Z,11.50
2017-12-30T13:14:58.583Z,11.60
2017-12-30T13:17:27.165Z,11.60
2017-12-30T13:19:55.568Z,11.70
2017-12-30T13:22:24.182Z,11.70
2017-12-30T13:24:52.540Z,11.80
2017-12-30T13:27:20.945Z,11.80
2017-12-30T13:29:50.105Z,11.80
2017-12-30T13:32:18.900Z,11.80
2017-12-30T13:34:47.279Z,11.90
2017-12-30T13:37:15.861Z,11.90
2017-12-30T13:39:44.265Z,11.90
2017-12-30T13:42:13.668Z,12.10
2017-12-30T13:44:42.810Z,12.20
2017-12-30T13:47:11.204Z,12.20
2017-12-30T13:49:39.590Z,12.20
2017-12-30T13:52:07.965Z,12.30
2017-12-30T13:54:36.347Z,12.30
2017-12-30T13:57:04.717Z,12.20
2017-12-30T13:59:33.247Z,12.10
2017-12-30T14:02:02.578Z,12.10
2017-12-30T14:04:30.987Z,12.10
2017-12-30T14:06:59.351Z,12.00
2017-12-30T14:09:27.855Z,12.00
2017-12-30T14:11:57.031Z,12.00
2017-12-30T14:14:25.422Z,12.00
2017-12-30T14:16:53.935Z,12.10
2017-12-30T14:19:23.101Z,12.00
2017-12-30T14:21:51.470Z,12.00
2017-12-30T14:24:19.724Z,11.90
2017-12-30T14:26:48.106Z,12.00
2017-12-30T14:29:16.643Z,11.90
2017-12-30T14:31:45.794Z,11.80
2017-12-30T14:34:13.986Z,11.80
2017-12-30T14:36:42.375Z,11.80
2017-12-30T14:39:10.735Z,11.80
2017-12-30T14:41:39.126Z,11.90
2017-12-30T14:44:07.494Z,11.90
2017-12-30T14:46:35.876Z,11.80
2017-12-30T14:49:05.050Z,11.80
2017-12-30T14:51:33.555Z,11.80
2017-12-30T14:54:01.932Z,11.80
2017-12-30T14:56:30.628Z,11.80
2017-12-30T14:58:59.005Z,11.80
2017-12-30T15:01:27.387Z,11.80
2017-12-30T15:03:56.574Z,11.80
2017-12-30T15:06:24.939Z,11.80
2017-12-30T15:08:53.343Z,11.80
2017-12-30T15:11:21.919Z,11.80
2017-12-30T15:13:50.300Z,11.80
2017-12-30T15:16:18.643Z,11.80
2017-12-30T15:18:47.024Z,11.80
2017-12-30T15:21:15.445Z,11.80
2017-12-30T15:23:44.617Z,11.90
2017-12-30T15:26:13.058Z,11.90
2017-12-30T15:28:41.501Z,11.90
2017-12-30T15:31:09.875Z,11.90
2017-12-30T15:33:39.018Z,11.80
2017-12-30T15:36:07.601Z,11.80
2017-12-30T15:38:36.019Z,11.80
2017-12-30T15:41:04.393Z,11.90
2017-12-30T15:43:32.764Z,11.80
2017-12-30T15:46:01.309Z,11.80
2017-12-30T15:48:29.689Z,11.90
2017-12-30T15:50:58.213Z,11.90
2017-12-30T15:53:27.564Z,11.90
2017-12-30T15:55:55.942Z,11.90
2017-12-30T15:58:24.318Z,11.80
2017-12-30T16:00:52.805Z,11.80
2017-12-30T16:03:21.385Z,11.80
2017-12-30T16:05:49.822Z,11.90
2017-12-30T16:08:18.186Z,11.90
2017-12-30T16:10:46.546Z,12.00
2017-12-30T16:13:14.935Z,12.00
2017-12-30T16:15:43.293Z,12.00
2017-12-30T16:18:11.667Z,12.00
2017-12-30T16:20:39.858Z,12.10
2017-12-30T16:23:08.297Z,12.00
2017-12-30T16:25:36.685Z,12.00
2017-12-30T16:28:05.070Z,12.00
2017-12-30T16:30:33.471Z,12.00
2017-12-30T16:33:02.619Z,12.00
2017-12-30T16:35:31.009Z,12.00
2017-12-30T16:37:59.378Z,12.00
2017-12-30T16:40:27.915Z,11.90
2017-12-30T16:42:55.995Z,11.90
2017-12-30T16:45:24.360Z,11.90
2017-12-30T16:47:53.335Z,12.00
2017-12-30T16:50:21.713Z,12.00
2017-12-30T16:52:50.242Z,12.00
2017-12-30T16:55:19.641Z,12.10
2017-12-30T16:57:49.084Z,12.10
2017-12-30T17:00:17.502Z,12.10
2017-12-30T17:02:45.850Z,12.10
2017-12-30T17:05:14.424Z,12.10
2017-12-30T17:07:42.809Z,12.10
2017-12-30T17:10:11.211Z,12.20
2017-12-30T17:12:39.691Z,12.20
2017-12-30T17:15:08.094Z,12.20
2017-12-30T17:17:37.254Z,12.10
2017-12-30T17:20:05.644Z,12.10
2017-12-30T17:22:34.051Z,12.10
2017-12-30T17:25:03.178Z,12.00
2017-12-30T17:27:32.533Z,12.00
2017-12-30T17:30:01.740Z,12.00
2017-12-30T17:32:30.258Z,12.00
2017-12-30T17:34:58.942Z,12.00
2017-12-30T17:37:27.346Z,12.00
2017-12-30T17:39:55.394Z,12.00
2017-12-30T17:42:23.743Z,12.00
2017-12-30T17:44:52.115Z,11.90
2017-12-30T17:47:21.521Z,12.00
2017-12-30T17:49:49.906Z,12.00
2017-12-30T17:52:18.336Z,12.00
2017-12-30T17:54:46.716Z,12.00
2017-12-30T17:57:15.092Z,12.10
2017-12-30T17:59:43.472Z,12.10
2017-12-30T18:02:11.842Z,12.00
2017-12-30T18:04:40.331Z,12.00
2017-12-30T18:07:08.711Z,12.00
2017-12-30T18:09:36.924Z,12.00
2017-12-30T18:12:06.216Z,12.00
2017-12-30T18:14:35.482Z,12.00
2017-12-30T18:17:04.766Z,12.00
2017-12-30T18:19:33.165Z,12.00
2017-12-30T18:22:03.099Z,12.00
2017-12-30T18:24:32.279Z,12.00
2017-12-30T18:27:00.650Z,12.00
2017-12-30T18:29:29.109Z,12.00
2017-12-30T18:31:57.505Z,12.00
2017-12-30T18:34:25.900Z,12.10
2017-12-30T18:36:54.295Z,12.10
2017-12-30T18:39:23.466Z,12.10
2017-12-30T18:41:51.845Z,12.20
2017-12-30T18:44:20.280Z,12.10
2017-12-30T18:46:48.624Z,12.20
2017-12-30T18:49:17.786Z,12.20
2017-12-30T18:51:46.152Z,12.10
2017-12-30T18:54:14.548Z,12.10
2017-12-30T18:56:42.921Z,12.10
2017-12-30T18:59:11.296Z,12.10
2017-12-30T19:01:39.661Z,12.10
2017-12-30T19:04:08.034Z,12.10
2017-12-30T19:06:36.398Z,12.20
2017-12-30T19:09:03.930Z,12.20
2017-12-30T19:11:33.073Z,12.20
2017-12-30T19:14:01.435Z,12.20
2017-12-30T19:16:29.894Z,12.20
2017-12-30T19:18:58.502Z,12.20
2017-12-30T19:21:27.084Z,12.20
2017-12-30T19:23:55.924Z,12.20
2017-12-30T19:26:25.111Z,12.20
2017-12-30T19:28:53.544Z,12.20
2017-12-30T19:31:22.161Z,12.20
2017-12-30T19:33:50.565Z,12.20
2017-12-30T19:36:19.724Z,12.20
2017-12-30T19:38:48.091Z,12.20
2017-12-30T19:41:16.468Z,12.20
2017-12-30T19:43:44.867Z,12.20
2017-12-30T19:46:14.028Z,12.10
2017-12-30T19:48:42.695Z,12.10
2017-12-30T19:51:11.063Z,12.10
2017-12-30T19:53:40.213Z,12.20
2017-12-30T19:56:08.595Z,12.20
2017-12-30T19:58:37.658Z,12.20
2017-12-30T20:01:06.101Z,12.20
2017-12-30T20:03:35.279Z,12.20
2017-12-30T20:06:03.751Z,12.20
2017-12-30T20:08:32.239Z,12.20
2017-12-30T20:11:01.458Z,12.20
2017-12-30T20:13:31.249Z,12.20
2017-12-30T20:16:00.441Z,12.20
2017-12-30T20:18:29.630Z,12.20
2017-12-30T20:20:58.200Z,12.20
2017-12-30T20:23:26.771Z,12.20
2017-12-30T20:25:55.445Z,12.20
2017-12-30T20:28:23.852Z,12.20
2017-12-30T20:30:52.290Z,12.30
2017-12-30T20:33:20.732Z,12.30
2017-12-30T20:35:49.266Z,12.30
2017-12-30T20:38:17.672Z,12.30
2017-12-30T20:40:46.105Z,12.30
2017-12-30T20:43:14.547Z,12.30
2017-12-30T20:45:43.871Z,12.30
2017-12-30T20:48:13.040Z,12.30
2017-12-30T20:50:42.995Z,12.30
2017-12-30T20:53:11.475Z,12.30
2017-12-30T20:55:39.921Z,12.30
2017-12-30T20:58:08.576Z,12.30
2017-12-30T21:00:36.938Z,12.30
2017-12-30T21:03:05.345Z,12.30
2017-12-30T21:05:33.718Z,12.30
2017-12-30T21:08:02.178Z,12.40
2017-12-30T21:10:30.627Z,12.40
2017-12-30T21:12:59.058Z,12.40
2017-12-30T21:15:27.478Z,12.40
2017-12-30T21:17:56.008Z,12.40
2017-12-30T21:20:24.616Z,12.40
2017-12-30T21:22:53.799Z,12.40
2017-12-30T21:25:22.266Z,12.40
2017-12-30T21:27:50.761Z,12.40
2017-12-30T21:30:19.236Z,12.40
2017-12-30T21:32:47.723Z,12.40
2017-12-30T21:35:16.160Z,12.40
2017-12-30T21:37:44.856Z,12.40
2017-12-30T21:40:13.743Z,12.40
2017-12-30T21:42:42.322Z,12.40
2017-12-30T21:45:10.949Z,12.40
2017-12-30T21:47:39.359Z,12.50
2017-12-30T21:50:08.515Z,12.40
2017-12-30T21:52:36.933Z,12.40
2017-12-30T21:55:06.128Z,12.50
2017-12-30T21:57:35.974Z,12.50
2017-12-30T22:00:04.383Z,12.50
2017-12-30T22:02:32.827Z,12.50
2017-12-30T22:05:01.226Z,12.60
2017-12-30T22:07:29.737Z,12.60
2017-12-30T22:09:58.126Z,12.60
2017-12-30T22:12:26.519Z,12.60
2017-12-30T22:14:55.716Z,12.60
2017-12-30T22:17:25.050Z,12.50
2017-12-30T22:19:53.634Z,12.50
2017-12-30T22:22:22.307Z,12.50
2017-12-30T22:24:50.872Z,12.50
2017-12-30T22:27:19.494Z,12.50
2017-12-30T22:29:48.188Z,12.60
2017-12-30T22:32:16.592Z,12.60
2017-12-30T22:34:45.055Z,12.50
2017-12-30T22:37:13.427Z,12.50
2017-12-30T22:39:41.816Z,12.60
2017-12-30T22:42:10.325Z,12.60
2017-12-30T22:44:38.731Z,12.50
2017-12-30T22:47:07.140Z,12.50
2017-12-30T22:49:35.701Z,12.50
2017-12-30T22:52:04.071Z,12.50
2017-12-30T22:54:32.597Z,12.50
2017-12-30T22:57:00.975Z,12.50
2017-12-30T22:59:29.353Z,12.50
2017-12-30T23:01:58.082Z,12.50
2017-12-30T23:04:27.375Z,12.40
2017-12-30T23:06:55.907Z,12.40
2017-12-30T23:09:24.291Z,12.40
2017-12-30T23:11:52.683Z,12.40
2017-12-30T23:14:21.222Z,12.40
2017-12-30T23:16:49.609Z,12.40
2017-12-30T23:19:18.006Z,12.40
2017-12-30T23:21:46.458Z,12.40
2017-12-30T23:24:14.872Z,12.40
2017-12-30T23:26:43.241Z,12.40
2017-12-30T23:29:11.617Z,12.40
2017-12-30T23:31:40.026Z,12.40
2017-12-30T23:34:09.365Z,12.40
2017-12-30T23:36:38.010Z,12.30
2017-12-30T23:39:07.144Z,12.30
2017-12-30T23:41:35.730Z,12.30
2017-12-30T23:44:04.107Z,12.30
2017-12-30T23:46:32.480Z,12.30
2017-12-30T23:49:00.855Z,12.30
2017-12-30T23:51:29.396Z,12.30
2017-12-30T23:53:58.556Z,12.30
2017-12-30T23:56:26.941Z,12.30
2017-12-30T23:58:55.307Z,12.30
